createdAt,value
2023-06-04T00:03:24.921Z,7.10
2023-06-04T00:08:27.480Z,6.50
2023-06-04T00:13:30.034Z,8.30
2023-06-04T00:18:32.497Z,7.83
2023-06-04T00:23:34.963Z,6.60
2023-06-04T00:28:37.447Z,6.33
2023-06-04T00:33:43.417Z,5.80
2023-06-04T00:38:45.919Z,5.40
2023-06-04T00:43:57.337Z,5.53
2023-06-04T00:49:00.590Z,7.80
2023-06-04T00:54:10.295Z,9.10
2023-06-04T00:59:13.375Z,9.77
2023-06-04T01:04:38.861Z,8.87
2023-06-04T01:09:41.732Z,7.50
2023-06-04T01:14:44.847Z,8.53
2023-06-04T01:19:56.018Z,8.97
2023-06-04T01:25:03.588Z,8.03
2023-06-04T01:30:06.695Z,7.27
2023-06-04T01:35:12.171Z,7.33
2023-06-04T01:40:15.325Z,7.07
2023-06-04T01:45:18.297Z,8.33
2023-06-04T01:50:21.162Z,9.33
2023-06-04T01:55:26.225Z,7.90
2023-06-04T02:00:28.802Z,8.17
2023-06-04T02:05:31.304Z,6.97
2023-06-04T02:10:33.766Z,6.47
2023-06-04T02:15:36.257Z,6.03
2023-06-04T02:20:38.632Z,6.57
2023-06-04T02:25:41.417Z,5.30
2023-06-04T02:30:46.835Z,5.50
2023-06-04T02:35:49.318Z,5.60
2023-06-04T02:40:51.731Z,5.63
2023-06-04T02:45:54.202Z,5.53
2023-06-04T02:50:56.703Z,5.67
2023-06-04T02:55:59.124Z,5.70
2023-06-04T03:01:01.813Z,5.07
2023-06-04T03:06:05.949Z,5.70
2023-06-04T03:11:08.865Z,5.90
2023-06-04T03:16:11.543Z,4.93
2023-06-04T03:21:14.395Z,5.23
2023-06-04T03:26:16.819Z,5.67
2023-06-04T03:31:19.695Z,5.00
2023-06-04T03:36:32.930Z,4.60
2023-06-04T03:41:37.608Z,4.57
2023-06-04T03:46:40.208Z,4.43
2023-06-04T03:51:42.842Z,5.30
2023-06-04T03:56:47.465Z,4.50
2023-06-04T04:01:50.560Z,4.83
2023-06-04T04:06:53.295Z,4.30
2023-06-04T04:11:56.488Z,5.03
2023-06-04T04:16:59.579Z,4.50
2023-06-04T04:22:02.631Z,4.93
2023-06-04T04:27:06.841Z,4.97
2023-06-04T04:32:12.485Z,4.30
2023-06-04T04:37:22.223Z,4.40
2023-06-04T04:42:26.205Z,4.90
2023-06-04T04:47:28.900Z,4.90
2023-06-04T04:52:31.752Z,4.63
2023-06-04T04:57:34.534Z,6.20
2023-06-04T05:02:37.941Z,4.80
2023-06-04T05:07:43.196Z,4.23
2023-06-04T05:12:57.056Z,4.57
2023-06-04T05:18:04.981Z,3.93
2023-06-04T05:23:13.517Z,4.23
2023-06-04T05:28:17.179Z,4.07
2023-06-04T05:33:20.006Z,3.53
2023-06-04T05:38:31.990Z,4.30
2023-06-04T05:43:40.644Z,3.63
2023-06-04T05:48:45.009Z,3.80
2023-06-04T05:53:48.260Z,3.77
2023-06-04T05:58:54.597Z,3.20
2023-06-04T06:03:59.299Z,3.13
2023-06-04T06:09:04.295Z,2.97
2023-06-04T06:14:07.365Z,3.07
2023-06-04T06:19:10.147Z,2.90
2023-06-04T06:24:12.616Z,2.33
2023-06-04T06:29:15.145Z,2.70
2023-06-04T06:34:19.363Z,2.80
2023-06-04T06:39:21.831Z,2.80
2023-06-04T06:44:24.242Z,2.43
2023-06-04T06:49:26.826Z,1.97
2023-06-04T06:54:29.200Z,2.50
2023-06-04T06:59:34.170Z,2.90
2023-06-04T07:04:36.716Z,2.65
2023-06-04T07:09:39.413Z,2.47
2023-06-04T07:14:41.805Z,1.90
2023-06-04T07:19:44.248Z,2.10
2023-06-04T07:24:46.719Z,1.92
2023-06-04T07:29:49.220Z,4.22
2023-06-04T07:34:51.710Z,4.38
2023-06-04T07:39:54.230Z,1.98
2023-06-04T07:44:56.632Z,2.80
2023-06-04T07:50:03.079Z,1.52
2023-06-04T07:55:07.000Z,2.17
2023-06-04T08:00:10.230Z,1.88
2023-06-04T08:05:15.682Z,1.38
2023-06-04T08:10:18.106Z,1.10
2023-06-04T08:15:20.868Z,1.23
2023-06-04T08:20:27.106Z,1.40
2023-06-04T08:25:31.329Z,1.52
2023-06-04T08:30:37.197Z,1.55
2023-06-04T08:35:39.720Z,1.50
2023-06-04T08:40:42.164Z,1.80
2023-06-04T08:45:47.161Z,1.48
2023-06-04T08:50:50.421Z,1.20
2023-06-04T08:55:54.868Z,1.48
2023-06-04T09:00:57.460Z,1.27
2023-06-04T09:06:01.412Z,1.42
2023-06-04T09:11:09.650Z,1.30
2023-06-04T09:16:12.097Z,1.13
2023-06-04T09:21:14.584Z,1.10
2023-06-04T09:26:17.018Z,1.67
2023-06-04T09:31:21.376Z,1.23
2023-06-04T09:36:23.829Z,1.88
2023-06-04T09:41:27.481Z,2.70
2023-06-04T09:46:30.503Z,1.63
2023-06-04T09:51:33.812Z,1.67
2023-06-04T09:56:43.772Z,1.63
2023-06-04T10:01:46.546Z,1.60
2023-06-04T10:06:49.737Z,1.10
2023-06-04T10:12:00.486Z,1.30
2023-06-04T10:17:05.236Z,1.20
2023-06-04T10:22:08.512Z,1.13
2023-06-04T10:27:14.744Z,1.35
2023-06-04T10:32:18.346Z,1.20
2023-06-04T10:37:22.761Z,1.40
2023-06-04T10:42:26.527Z,8.85
2023-06-04T10:47:35.090Z,4.05
2023-06-04T10:52:38.303Z,1.55
2023-06-04T10:57:42.198Z,2.45
2023-06-04T11:02:55.453Z,0.82
2023-06-04T11:07:57.895Z,1.05
2023-06-04T11:13:00.705Z,1.30
2023-06-04T11:18:03.224Z,1.42
2023-06-04T11:23:08.553Z,1.27
2023-06-04T11:28:19.433Z,1.30
2023-06-04T11:33:22.223Z,3.03
2023-06-04T11:38:24.778Z,2.95
2023-06-04T11:43:28.451Z,4.35
2023-06-04T11:48:31.960Z,1.73
2023-06-04T11:53:34.558Z,2.00
2023-06-04T11:58:37.152Z,1.30
2023-06-04T12:03:41.896Z,2.45
2023-06-04T12:08:54.636Z,5.38
2023-06-04T12:13:59.160Z,1.58
2023-06-04T12:19:12.902Z,1.33
2023-06-04T12:24:16.100Z,1.40
2023-06-04T12:29:21.105Z,1.10
2023-06-04T12:34:23.943Z,1.15
2023-06-04T12:39:26.423Z,1.13
2023-06-04T12:44:29.033Z,1.40
2023-06-04T12:49:31.474Z,1.50
2023-06-04T12:54:33.989Z,1.85
2023-06-04T12:59:37.003Z,1.23
2023-06-04T13:04:39.444Z,1.50
2023-06-04T13:09:42.445Z,1.30
2023-06-04T13:14:44.946Z,1.20
2023-06-04T13:19:47.481Z,1.35
2023-06-04T13:24:49.893Z,1.33
2023-06-04T13:29:52.293Z,1.45
2023-06-04T13:34:54.697Z,1.20
2023-06-04T13:39:57.089Z,1.33
2023-06-04T13:45:00.078Z,1.30
2023-06-04T13:50:02.861Z,1.30
2023-06-04T13:55:05.746Z,1.23
2023-06-04T14:00:09.138Z,1.08
2023-06-04T14:05:11.617Z,1.90
2023-06-04T14:10:14.465Z,1.38
2023-06-04T14:15:16.975Z,1.70
2023-06-04T14:20:19.699Z,1.30
2023-06-04T14:25:22.204Z,0.95
2023-06-04T14:30:24.582Z,1.65
2023-06-04T14:35:27.011Z,1.92
2023-06-04T14:40:29.400Z,1.30
2023-06-04T14:45:32.024Z,1.45
2023-06-04T14:50:34.502Z,1.40
2023-06-04T14:55:37.426Z,1.90
2023-06-04T15:00:39.896Z,1.50
2023-06-04T15:05:42.421Z,1.60
2023-06-04T15:10:44.900Z,1.20
2023-06-04T15:15:47.349Z,1.30
2023-06-04T15:20:49.741Z,1.10
2023-06-04T15:25:52.158Z,1.08
2023-06-04T15:30:54.595Z,8.88
2023-06-04T15:35:57.047Z,1.33
2023-06-04T15:40:59.663Z,1.20
2023-06-04T15:46:02.156Z,1.27
2023-06-04T15:51:04.663Z,1.52
2023-06-04T15:56:07.111Z,2.08
2023-06-04T16:01:10.252Z,1.35
2023-06-04T16:06:13.009Z,2.13
2023-06-04T16:11:15.941Z,1.30
2023-06-04T16:16:19.373Z,1.67
2023-06-04T16:21:22.361Z,1.20
2023-06-04T16:26:24.771Z,2.20
2023-06-04T16:31:27.280Z,1.48
2023-06-04T16:36:30.622Z,1.40
2023-06-04T16:41:34.135Z,1.25
2023-06-04T16:46:37.033Z,1.38
2023-06-04T16:51:41.520Z,1.30
2023-06-04T16:56:43.896Z,1.60
2023-06-04T17:01:46.309Z,1.33
2023-06-04T17:06:48.834Z,1.27
2023-06-04T17:11:51.273Z,1.10
2023-06-04T17:16:53.722Z,1.30
2023-06-04T17:21:56.182Z,1.70
2023-06-04T17:26:58.707Z,1.67
2023-06-04T17:32:01.233Z,3.70
2023-06-04T17:37:04.289Z,4.03
2023-06-04T17:42:06.925Z,2.70
2023-06-04T17:47:09.385Z,7.70
2023-06-04T17:52:11.848Z,5.70
2023-06-04T17:57:14.520Z,1.80
2023-06-04T18:02:16.939Z,2.72
2023-06-04T18:07:20.524Z,3.00
2023-06-04T18:12:23.212Z,4.57
2023-06-04T18:17:26.239Z,3.17
2023-06-04T18:22:28.754Z,3.13
2023-06-04T18:27:31.281Z,9.45
2023-06-04T18:32:36.520Z,4.10
2023-06-04T18:37:38.998Z,4.75
2023-06-04T18:42:41.426Z,4.75
2023-06-04T18:47:44.145Z,9.88
2023-06-04T18:52:46.613Z,5.32
2023-06-04T18:57:49.059Z,3.80
2023-06-04T19:02:51.551Z,4.37
2023-06-04T19:07:54.047Z,3.80
2023-06-04T19:12:56.493Z,4.80
2023-06-04T19:17:59.162Z,4.50
2023-06-04T19:23:01.693Z,7.20
2023-06-04T19:28:07.347Z,5.90
2023-06-04T19:33:09.821Z,5.67
2023-06-04T19:38:12.309Z,6.20
2023-06-04T19:43:14.728Z,5.00
2023-06-04T19:48:17.305Z,4.73
2023-06-04T19:53:19.753Z,4.10
2023-06-04T19:58:22.443Z,5.27
2023-06-04T20:03:26.130Z,5.17
2023-06-04T20:08:28.621Z,5.40
2023-06-04T20:13:31.142Z,8.97
2023-06-04T20:18:34.400Z,25.27
2023-06-04T20:23:37.058Z,8.40
2023-06-04T20:28:39.550Z,10.70
2023-06-04T20:33:41.989Z,12.07
2023-06-04T20:38:44.681Z,9.93
2023-06-04T20:43:48.860Z,7.33
2023-06-04T20:48:51.424Z,8.97
2023-06-04T20:53:53.930Z,18.17
2023-06-04T20:58:56.432Z,12.37
2023-06-04T21:04:01.279Z,9.90
2023-06-04T21:09:07.866Z,13.03
2023-06-04T21:14:10.788Z,10.87
2023-06-04T21:19:13.190Z,8.37
2023-06-04T21:24:15.624Z,7.57
2023-06-04T21:29:18.017Z,7.40
2023-06-04T21:34:20.493Z,6.90
2023-06-04T21:39:22.891Z,7.10
2023-06-04T21:44:25.523Z,6.40
2023-06-04T21:49:28.429Z,7.00
2023-06-04T21:54:30.820Z,6.17
2023-06-04T21:59:33.185Z,6.33
2023-06-04T22:04:35.873Z,6.93
2023-06-04T22:09:38.387Z,7.60
2023-06-04T22:14:41.212Z,9.53
2023-06-04T22:19:43.651Z,12.27
2023-06-04T22:24:46.165Z,10.20
2023-06-04T22:29:48.612Z,8.53
2023-06-04T22:34:51.026Z,9.33
2023-06-04T22:39:53.570Z,7.87
2023-06-04T22:44:56.505Z,7.00
2023-06-04T22:49:58.897Z,6.67
2023-06-04T22:55:02.221Z,6.63
2023-06-04T23:00:06.552Z,6.87
2023-06-04T23:05:10.759Z,7.43
2023-06-04T23:10:13.736Z,5.70
2023-06-04T23:15:24.035Z,5.67
2023-06-04T23:20:26.631Z,6.90
2023-06-04T23:25:29.264Z,6.83
2023-06-04T23:30:31.710Z,7.57
2023-06-04T23:35:34.226Z,8.17
2023-06-04T23:40:36.677Z,8.17
2023-06-04T23:45:39.216Z,7.53
2023-06-04T23:50:41.712Z,8.30
2023-06-04T23:55:44.095Z,8.27
